createdAt,value
2017-11-29T00:01:59.681Z,16.70
2017-11-29T00:04:27.075Z,17.37
2017-11-29T00:06:54.479Z,17.30
2017-11-29T00:09:21.871Z,17.70
2017-11-29T00:11:49.272Z,16.47
2017-11-29T00:14:16.654Z,16.50
2017-11-29T00:16:44.067Z,17.10
2017-11-29T00:19:11.456Z,17.57
2017-11-29T00:21:38.857Z,16.80
2017-11-29T00:24:06.255Z,16.87
2017-11-29T00:26:33.644Z,16.80
2017-11-29T00:29:01.037Z,16.30
2017-11-29T00:31:28.434Z,16.27
2017-11-29T00:33:55.807Z,16.83
2017-11-29T00:36:23.219Z,16.12
2017-11-29T00:38:50.623Z,15.70
2017-11-29T00:41:18.028Z,16.03
2017-11-29T00:43:45.420Z,16.13
2017-11-29T00:46:13.003Z,15.13
2017-11-29T00:48:40.400Z,15.70
2017-11-29T00:51:07.796Z,14.53
2017-11-29T00:53:35.188Z,14.77
2017-11-29T00:56:02.588Z,15.20
2017-11-29T00:58:29.990Z,14.77
2017-11-29T01:00:57.385Z,14.63
2017-11-29T01:03:24.777Z,14.20
2017-11-29T01:05:52.183Z,15.00
2017-11-29T01:08:19.584Z,14.10
2017-11-29T01:10:46.987Z,14.17
2017-11-29T01:13:14.391Z,15.20
2017-11-29T01:15:41.787Z,15.00
2017-11-29T01:18:09.177Z,14.97
2017-11-29T01:20:36.564Z,15.43
2017-11-29T01:23:03.959Z,17.87
2017-11-29T01:25:31.370Z,17.15
2017-11-29T01:27:58.760Z,18.70
2017-11-29T01:30:26.146Z,18.40
2017-11-29T01:32:53.548Z,18.60
2017-11-29T01:35:20.944Z,19.00
2017-11-29T01:37:48.331Z,18.70
2017-11-29T01:40:15.719Z,18.90
2017-11-29T01:42:43.109Z,18.90
2017-11-29T01:45:10.539Z,18.77
2017-11-29T01:47:37.952Z,20.10
2017-11-29T01:50:05.358Z,18.60
2017-11-29T01:52:32.752Z,18.00
2017-11-29T01:55:00.133Z,19.03
2017-11-29T01:57:27.551Z,18.30
2017-11-29T01:59:54.958Z,18.60
2017-11-29T02:02:22.347Z,19.30
2017-11-29T02:04:49.763Z,18.80
2017-11-29T02:07:17.200Z,19.10
2017-11-29T02:09:44.608Z,19.27
2017-11-29T02:12:11.987Z,18.90
2017-11-29T02:14:39.386Z,20.93
2017-11-29T02:17:06.771Z,19.37
2017-11-29T02:19:34.160Z,19.37
2017-11-29T02:22:01.567Z,20.50
2017-11-29T02:24:28.978Z,19.20
2017-11-29T02:26:56.363Z,19.23
2017-11-29T02:29:23.764Z,21.00
2017-11-29T02:31:51.171Z,20.33
2017-11-29T02:34:18.568Z,19.80
2017-11-29T02:36:45.967Z,21.03
2017-11-29T02:39:13.370Z,21.10
2017-11-29T02:44:39.680Z,20.43
2017-11-29T02:47:07.094Z,19.67
2017-11-29T02:49:34.494Z,20.30
2017-11-29T02:52:01.894Z,20.20
2017-11-29T02:54:29.295Z,20.30
2017-11-29T02:56:56.725Z,20.87
2017-11-29T02:59:24.124Z,20.67
2017-11-29T03:01:51.521Z,20.10
2017-11-29T03:04:18.946Z,20.67
2017-11-29T03:06:46.333Z,21.07
2017-11-29T03:09:13.719Z,19.90
2017-11-29T03:11:41.116Z,20.20
2017-11-29T03:14:08.501Z,19.00
2017-11-29T03:16:35.918Z,20.33
2017-11-29T03:19:03.304Z,19.13
2017-11-29T03:21:30.739Z,19.73
2017-11-29T03:23:58.124Z,20.70
2017-11-29T03:26:25.528Z,20.10
2017-11-29T03:28:52.917Z,20.60
2017-11-29T03:31:20.305Z,20.97
2017-11-29T03:33:47.707Z,21.00
2017-11-29T03:36:15.102Z,20.20
2017-11-29T03:38:42.514Z,20.80
2017-11-29T03:41:09.916Z,19.10
2017-11-29T03:43:37.324Z,20.37
2017-11-29T03:46:04.720Z,19.37
2017-11-29T03:48:32.126Z,19.60
2017-11-29T03:50:59.519Z,20.53
2017-11-29T03:53:26.922Z,19.50
2017-11-29T03:55:54.313Z,19.43
2017-11-29T03:58:21.739Z,19.80
2017-11-29T04:00:49.136Z,19.50
2017-11-29T04:03:16.551Z,19.90
2017-11-29T04:05:43.935Z,20.73
2017-11-29T04:08:11.328Z,21.10
2017-11-29T04:10:38.736Z,21.15
2017-11-29T04:13:06.127Z,19.80
2017-11-29T04:15:33.520Z,18.80
2017-11-29T04:18:00.916Z,20.27
2017-11-29T04:20:28.338Z,19.37
2017-11-29T04:22:55.762Z,19.90
2017-11-29T04:25:23.158Z,18.70
2017-11-29T04:27:50.534Z,18.97
2017-11-29T04:30:17.979Z,21.00
2017-11-29T04:32:45.357Z,22.00
2017-11-29T04:35:12.764Z,20.70
2017-11-29T04:37:40.179Z,20.73
2017-11-29T04:40:07.561Z,21.10
2017-11-29T04:42:34.956Z,20.93
2017-11-29T04:45:02.352Z,20.50
2017-11-29T04:47:29.793Z,18.70
2017-11-29T04:49:57.184Z,18.60
2017-11-29T04:52:24.643Z,17.90
2017-11-29T04:54:52.044Z,18.05
2017-11-29T04:57:19.433Z,19.20
2017-11-29T04:59:46.849Z,19.65
2017-11-29T05:02:14.978Z,19.23
2017-11-29T05:04:42.377Z,18.30
2017-11-29T05:07:09.780Z,19.30
2017-11-29T05:09:37.172Z,18.95
2017-11-29T05:12:04.575Z,19.63
2017-11-29T05:14:31.976Z,19.10
2017-11-29T05:16:59.403Z,19.87
2017-11-29T05:19:26.800Z,18.83
2017-11-29T05:21:54.188Z,18.20
2017-11-29T05:24:21.592Z,19.20
2017-11-29T05:26:48.982Z,19.27
2017-11-29T05:29:16.416Z,19.40
2017-11-29T05:31:43.828Z,18.53
2017-11-29T05:34:11.210Z,20.57
2017-11-29T05:36:38.610Z,19.50
2017-11-29T05:39:05.995Z,19.23
2017-11-29T05:41:33.404Z,19.10
2017-11-29T05:44:00.808Z,20.70
2017-11-29T05:46:28.213Z,21.57
2017-11-29T05:48:55.670Z,21.55
2017-11-29T05:51:23.080Z,21.27
2017-11-29T05:53:50.469Z,20.60
2017-11-29T05:56:17.884Z,20.12
2017-11-29T05:58:45.276Z,20.10
2017-11-29T06:01:12.693Z,20.53
2017-11-29T06:03:40.077Z,20.13
2017-11-29T06:06:07.480Z,18.85
2017-11-29T06:08:34.891Z,18.50
2017-11-29T06:11:02.292Z,18.55
2017-11-29T06:13:29.703Z,18.30
2017-11-29T06:15:57.114Z,19.85
2017-11-29T06:18:24.505Z,19.15
2017-11-29T06:20:51.923Z,20.40
2017-11-29T06:23:19.327Z,20.65
2017-11-29T06:25:46.740Z,20.08
2017-11-29T06:28:14.150Z,20.80
2017-11-29T06:30:41.536Z,20.37
2017-11-29T06:33:08.948Z,20.80
2017-11-29T06:35:36.355Z,21.52
2017-11-29T06:38:03.777Z,19.95
2017-11-29T06:40:31.187Z,22.93
2017-11-29T06:42:58.601Z,21.60
2017-11-29T06:45:25.993Z,21.10
2017-11-29T06:47:53.411Z,21.30
2017-11-29T06:50:20.849Z,20.60
2017-11-29T06:52:48.277Z,20.63
2017-11-29T06:55:15.683Z,21.20
2017-11-29T06:57:43.129Z,19.60
2017-11-29T07:00:10.503Z,20.03
2017-11-29T07:02:37.913Z,21.93
2017-11-29T07:05:05.324Z,23.03
2017-11-29T07:07:32.703Z,21.70
2017-11-29T07:10:00.096Z,18.80
2017-11-29T07:12:27.510Z,20.13
2017-11-29T07:14:54.912Z,22.00
2017-11-29T07:17:22.316Z,19.00
2017-11-29T07:19:49.730Z,20.10
2017-11-29T07:22:17.153Z,21.77
2017-11-29T07:24:44.546Z,19.90
2017-11-29T07:27:11.995Z,20.07
2017-11-29T07:29:39.384Z,19.10
2017-11-29T07:32:06.834Z,21.50
2017-11-29T07:34:34.269Z,21.60
2017-11-29T07:37:01.646Z,20.10
2017-11-29T07:39:29.065Z,21.60
2017-11-29T07:41:56.497Z,21.20
2017-11-29T07:44:23.892Z,21.90
2017-11-29T07:46:51.292Z,21.73
2017-11-29T07:49:18.685Z,23.00
2017-11-29T07:51:46.113Z,21.87
2017-11-29T07:54:13.507Z,23.60
2017-11-29T07:56:40.919Z,21.80
2017-11-29T07:59:08.348Z,21.42
2017-11-29T08:01:35.771Z,22.42
2017-11-29T08:04:03.197Z,20.80
2017-11-29T08:06:30.572Z,22.50
2017-11-29T08:08:57.977Z,21.05
2017-11-29T08:11:25.441Z,22.50
2017-11-29T08:13:52.852Z,23.08
2017-11-29T08:16:20.256Z,22.30
2017-11-29T08:18:47.663Z,22.15
2017-11-29T08:21:15.077Z,21.85
2017-11-29T08:23:42.496Z,22.53
2017-11-29T08:26:09.872Z,22.10
2017-11-29T08:28:37.306Z,22.67
2017-11-29T08:31:04.705Z,22.48
2017-11-29T08:33:32.108Z,23.53
2017-11-29T08:35:59.540Z,24.17
2017-11-29T08:38:26.936Z,24.55
2017-11-29T08:40:54.351Z,25.27
2017-11-29T08:43:21.764Z,23.20
2017-11-29T08:45:49.156Z,26.73
2017-11-29T08:48:16.583Z,23.60
2017-11-29T08:50:43.991Z,23.65
2017-11-29T08:53:11.415Z,26.15
2017-11-29T08:55:38.853Z,25.23
2017-11-29T08:58:06.249Z,24.35
2017-11-29T09:00:33.655Z,28.10
2017-11-29T09:03:01.072Z,25.52
2017-11-29T09:05:28.464Z,24.60
2017-11-29T09:07:55.862Z,24.30
2017-11-29T09:10:23.285Z,25.90
2017-11-29T09:12:50.716Z,26.00
2017-11-29T09:15:18.122Z,24.87
2017-11-29T09:17:45.527Z,25.20
2017-11-29T09:20:12.944Z,23.80
2017-11-29T09:22:40.344Z,24.53
2017-11-29T09:25:07.744Z,24.77
2017-11-29T09:27:35.160Z,24.90
2017-11-29T09:30:02.592Z,23.42
2017-11-29T09:32:30.004Z,23.35
2017-11-29T09:34:57.407Z,25.20
2017-11-29T09:37:24.792Z,24.60
2017-11-29T09:39:52.181Z,25.10
2017-11-29T09:42:19.604Z,25.40
2017-11-29T09:44:47.016Z,27.47
2017-11-29T09:47:14.411Z,24.17
2017-11-29T09:49:41.786Z,21.47
2017-11-29T09:52:09.197Z,24.07
2017-11-29T09:54:36.599Z,23.67
2017-11-29T09:57:03.987Z,21.50
2017-11-29T09:59:31.395Z,22.77
2017-11-29T10:01:58.798Z,21.40
2017-11-29T10:04:26.181Z,23.37
2017-11-29T10:06:53.601Z,22.83
2017-11-29T10:09:21.024Z,23.37
2017-11-29T10:11:48.432Z,21.10
2017-11-29T10:14:15.840Z,22.20
2017-11-29T10:16:43.247Z,23.50
2017-11-29T10:19:10.661Z,22.23
2017-11-29T10:21:38.058Z,22.07
2017-11-29T10:24:05.436Z,21.37
2017-11-29T10:26:32.838Z,22.43
2017-11-29T10:29:00.236Z,23.43
2017-11-29T10:31:27.635Z,19.57
2017-11-29T10:33:55.035Z,19.00
2017-11-29T10:36:22.447Z,16.47
2017-11-29T10:38:49.844Z,18.10
2017-11-29T10:41:17.238Z,15.80
2017-11-29T10:43:44.676Z,15.50
2017-11-29T10:46:12.052Z,16.60
2017-11-29T10:48:39.464Z,15.13
2017-11-29T10:51:06.857Z,16.00
2017-11-29T10:53:34.304Z,14.87
2017-11-29T10:56:01.736Z,16.30
2017-11-29T10:58:29.116Z,15.60
2017-11-29T11:00:56.523Z,16.07
2017-11-29T11:03:23.952Z,15.43
2017-11-29T11:05:51.357Z,14.50
2017-11-29T11:08:18.769Z,15.73
2017-11-29T11:10:46.170Z,15.57
2017-11-29T11:13:13.848Z,16.10
2017-11-29T11:15:41.254Z,16.10
2017-11-29T11:18:08.685Z,15.80
2017-11-29T11:20:36.072Z,13.93
2017-11-29T11:23:03.468Z,15.37
2017-11-29T11:25:31.395Z,13.50
2017-11-29T11:27:58.815Z,14.30
2017-11-29T11:30:26.211Z,14.90
2017-11-29T11:32:53.657Z,14.63
2017-11-29T11:35:21.052Z,14.40
2017-11-29T11:37:48.445Z,13.73
2017-11-29T11:40:15.864Z,13.90
2017-11-29T11:42:43.260Z,14.20
2017-11-29T11:45:10.677Z,14.60
2017-11-29T11:47:38.121Z,14.20
2017-11-29T11:50:05.506Z,14.33
2017-11-29T11:52:32.904Z,15.40
2017-11-29T11:55:00.302Z,14.67
2017-11-29T11:57:27.725Z,14.23
2017-11-29T11:59:55.111Z,14.47
2017-11-29T12:02:22.555Z,16.80
2017-11-29T12:04:49.936Z,16.10
2017-11-29T12:07:17.347Z,15.90
2017-11-29T12:09:44.739Z,13.73
2017-11-29T12:12:12.161Z,11.40
2017-11-29T12:14:39.567Z,12.80
2017-11-29T12:17:06.960Z,14.13
2017-11-29T12:19:34.352Z,12.60
2017-11-29T12:22:01.794Z,11.97
2017-11-29T12:24:29.228Z,11.53
2017-11-29T12:26:56.629Z,11.53
2017-11-29T12:29:24.017Z,11.27
2017-11-29T12:31:51.421Z,11.10
2017-11-29T12:34:18.828Z,11.20
2017-11-29T12:36:46.231Z,11.50
2017-11-29T12:39:13.639Z,11.37
2017-11-29T12:41:41.044Z,10.77
2017-11-29T12:44:08.444Z,9.70
2017-11-29T12:46:36.347Z,11.27
2017-11-29T12:49:15.497Z,10.97
2017-11-29T12:51:42.918Z,11.20
2017-11-29T12:54:10.320Z,12.80
2017-11-29T12:56:37.730Z,11.47
2017-11-29T12:59:05.129Z,11.70
2017-11-29T13:01:32.529Z,11.67
2017-11-29T13:03:59.949Z,13.07
2017-11-29T13:06:27.331Z,11.87
2017-11-29T13:08:54.786Z,11.37
2017-11-29T13:11:22.181Z,12.07
2017-11-29T13:13:49.606Z,10.50
2017-11-29T13:16:16.998Z,11.40
2017-11-29T13:18:44.388Z,12.63
2017-11-29T13:21:11.789Z,10.93
2017-11-29T13:23:39.259Z,12.33
2017-11-29T13:26:06.647Z,12.57
2017-11-29T13:28:34.035Z,12.43
2017-11-29T13:31:01.485Z,11.00
2017-11-29T13:33:28.887Z,12.47
2017-11-29T13:35:56.284Z,11.20
2017-11-29T13:38:23.671Z,11.90
2017-11-29T13:40:51.056Z,10.63
2017-11-29T13:43:18.444Z,9.80
2017-11-29T13:45:45.840Z,10.80
2017-11-29T13:48:13.228Z,10.83
2017-11-29T13:50:40.606Z,11.23
2017-11-29T13:53:08.008Z,10.93
2017-11-29T13:55:35.396Z,11.10
2017-11-29T13:58:02.795Z,11.47
2017-11-29T14:00:30.209Z,11.17
2017-11-29T14:02:57.588Z,12.30
2017-11-29T14:05:24.984Z,11.30
2017-11-29T14:07:52.372Z,11.40
2017-11-29T14:10:19.768Z,12.80
2017-11-29T14:12:49.160Z,11.63
2017-11-29T14:15:16.551Z,12.60
2017-11-29T14:17:43.944Z,12.73
2017-11-29T14:20:11.362Z,12.13
2017-11-29T14:22:38.752Z,12.57
2017-11-29T14:25:06.148Z,11.90
2017-11-29T14:27:33.546Z,11.47
2017-11-29T14:30:00.936Z,11.80
2017-11-29T14:32:28.332Z,13.03
2017-11-29T14:34:55.716Z,14.30
2017-11-29T14:37:23.106Z,13.60
2017-11-29T14:39:50.499Z,13.00
2017-11-29T14:42:17.896Z,13.83
2017-11-29T14:44:45.284Z,13.23
2017-11-29T14:47:12.677Z,12.70
2017-11-29T14:49:40.071Z,11.53
2017-11-29T14:52:07.476Z,13.50
2017-11-29T14:54:34.875Z,13.40
2017-11-29T14:57:02.264Z,13.70
2017-11-29T14:59:29.669Z,13.17
2017-11-29T15:01:57.053Z,12.50
2017-11-29T15:04:24.437Z,12.43
2017-11-29T15:06:51.839Z,12.50
2017-11-29T15:09:19.228Z,12.57
2017-11-29T15:11:46.615Z,13.87
2017-11-29T15:14:14.009Z,12.97
2017-11-29T15:16:41.401Z,12.30
2017-11-29T15:19:08.792Z,12.73
2017-11-29T15:21:36.182Z,13.23
2017-11-29T15:24:03.587Z,16.27
2017-11-29T15:26:30.974Z,14.00
2017-11-29T15:28:58.363Z,13.03
2017-11-29T15:31:25.751Z,13.17
2017-11-29T15:33:53.144Z,12.80
2017-11-29T15:36:20.540Z,12.63
2017-11-29T15:38:47.937Z,13.00
2017-11-29T15:41:15.371Z,14.33
2017-11-29T15:43:42.749Z,13.60
2017-11-29T15:46:10.160Z,15.10
2017-11-29T15:48:37.552Z,13.97
2017-11-29T15:51:04.944Z,15.03
2017-11-29T15:53:32.340Z,14.93
2017-11-29T15:55:59.750Z,15.90
2017-11-29T15:58:27.227Z,16.10
2017-11-29T16:00:54.605Z,14.20
2017-11-29T16:03:22.011Z,15.80
2017-11-29T16:05:49.404Z,16.85
2017-11-29T16:08:16.811Z,16.20
2017-11-29T16:10:44.218Z,16.83
2017-11-29T16:13:11.620Z,14.47
2017-11-29T16:15:39.002Z,16.93
2017-11-29T16:18:06.420Z,18.20
2017-11-29T16:20:33.835Z,17.00
2017-11-29T16:23:01.228Z,17.45
2017-11-29T16:25:28.624Z,17.33
2017-11-29T16:27:56.032Z,17.42
2017-11-29T16:30:23.436Z,18.58
2017-11-29T16:32:50.845Z,18.10
2017-11-29T16:35:18.254Z,17.37
2017-11-29T16:37:45.661Z,19.05
2017-11-29T16:40:13.064Z,16.43
2017-11-29T16:42:40.448Z,14.60
2017-11-29T16:45:07.866Z,13.73
2017-11-29T16:47:35.267Z,14.20
2017-11-29T16:50:02.665Z,15.20
2017-11-29T16:52:30.057Z,15.00
2017-11-29T16:54:57.451Z,14.93
2017-11-29T16:57:24.854Z,13.45
2017-11-29T16:59:52.250Z,13.90
2017-11-29T17:02:19.642Z,15.20
2017-11-29T17:04:47.034Z,15.00
2017-11-29T17:07:14.441Z,16.67
2017-11-29T17:09:41.829Z,18.20
2017-11-29T17:12:09.236Z,17.85
2017-11-29T17:14:40.191Z,16.80
2017-11-29T17:17:07.599Z,17.77
2017-11-29T17:19:34.988Z,17.70
2017-11-29T17:22:02.397Z,19.87
2017-11-29T17:24:29.791Z,18.30
2017-11-29T17:26:57.187Z,18.27
2017-11-29T17:29:24.583Z,18.50
2017-11-29T17:31:51.981Z,18.57
2017-11-29T17:34:19.367Z,18.80
2017-11-29T17:36:46.760Z,19.53
2017-11-29T17:39:14.152Z,20.50
2017-11-29T17:41:41.555Z,20.55
2017-11-29T17:44:08.964Z,20.30
2017-11-29T17:46:37.224Z,21.45
2017-11-29T17:49:04.615Z,20.70
2017-11-29T17:51:32.016Z,21.45
2017-11-29T17:53:59.404Z,21.43
2017-11-29T17:56:26.827Z,19.50
2017-11-29T17:58:54.219Z,20.70
2017-11-29T18:01:21.604Z,21.27
2017-11-29T18:03:48.995Z,20.60
2017-11-29T18:06:16.391Z,19.87
2017-11-29T18:08:43.825Z,19.10
2017-11-29T18:11:11.177Z,19.90
2017-11-29T18:13:38.576Z,20.20
2017-11-29T18:16:05.974Z,19.98
2017-11-29T18:18:33.365Z,20.87
2017-11-29T18:21:00.752Z,19.03
2017-11-29T18:23:28.149Z,21.00
2017-11-29T18:25:55.533Z,20.70
2017-11-29T18:28:22.943Z,19.92
2017-11-29T18:30:50.350Z,18.83
2017-11-29T18:33:17.744Z,20.52
2017-11-29T18:35:45.136Z,21.23
2017-11-29T18:38:12.527Z,21.12
2017-11-29T18:40:39.937Z,20.00
2017-11-29T18:43:07.363Z,23.25
2017-11-29T18:45:34.751Z,21.30
2017-11-29T18:48:02.146Z,21.00
2017-11-29T18:50:29.531Z,21.63
2017-11-29T18:52:56.934Z,20.47
2017-11-29T18:55:24.331Z,21.23
2017-11-29T18:57:51.739Z,20.42
2017-11-29T19:00:19.128Z,21.07
2017-11-29T19:02:46.522Z,20.67
2017-11-29T19:05:13.912Z,20.77
2017-11-29T19:07:41.328Z,22.00
2017-11-29T19:10:08.721Z,20.65
2017-11-29T19:12:36.107Z,21.27
2017-11-29T19:15:03.508Z,20.10
2017-11-29T19:17:30.902Z,21.20
2017-11-29T19:19:58.321Z,25.17
2017-11-29T19:22:25.719Z,27.15
2017-11-29T19:24:53.119Z,26.20
2017-11-29T19:27:20.505Z,24.27
2017-11-29T19:29:47.907Z,25.07
2017-11-29T19:32:15.291Z,23.87
2017-11-29T19:34:42.680Z,23.93
2017-11-29T19:37:10.079Z,24.07
2017-11-29T19:39:37.471Z,24.13
2017-11-29T19:42:04.870Z,21.77
2017-11-29T19:44:36.133Z,22.67
2017-11-29T19:47:03.545Z,25.40
2017-11-29T19:49:30.943Z,24.42
2017-11-29T19:51:58.433Z,24.10
2017-11-29T19:54:25.820Z,24.70
2017-11-29T19:56:53.216Z,22.70
2017-11-29T19:59:20.636Z,24.57
2017-11-29T20:01:49.972Z,21.80
2017-11-29T20:04:17.378Z,23.67
2017-11-29T20:06:44.841Z,22.52
2017-11-29T20:09:12.297Z,25.23
2017-11-29T20:11:39.706Z,22.77
2017-11-29T20:14:07.115Z,22.42
2017-11-29T20:16:35.032Z,21.37
2017-11-29T20:19:03.338Z,24.65
2017-11-29T20:21:30.736Z,23.40
2017-11-29T20:23:58.246Z,24.52
2017-11-29T20:26:26.576Z,26.00
2017-11-29T20:28:54.991Z,26.67
2017-11-29T20:31:22.399Z,25.02
2017-11-29T20:33:50.591Z,25.35
2017-11-29T20:36:18.001Z,25.75
2017-11-29T20:38:45.401Z,25.30
2017-11-29T20:41:12.800Z,24.83
2017-11-29T20:43:40.263Z,24.95
2017-11-29T20:46:07.680Z,22.60
2017-11-29T20:48:35.081Z,22.02
2017-11-29T20:51:02.484Z,22.37
2017-11-29T20:53:29.893Z,24.10
2017-11-29T20:55:57.288Z,23.05
2017-11-29T20:58:24.684Z,24.20
2017-11-29T21:00:52.084Z,22.02
2017-11-29T21:03:19.504Z,23.80
2017-11-29T21:05:46.912Z,22.05
2017-11-29T21:08:21.840Z,23.42
2017-11-29T21:10:49.236Z,23.65
2017-11-29T21:13:16.628Z,25.52
2017-11-29T21:15:44.032Z,28.90
2017-11-29T21:18:11.437Z,31.58
2017-11-29T21:20:38.837Z,33.55
2017-11-29T21:23:06.232Z,30.37
2017-11-29T21:25:33.643Z,30.88
2017-11-29T21:28:01.036Z,30.35
2017-11-29T21:30:28.428Z,31.65
2017-11-29T21:32:55.836Z,29.45
2017-11-29T21:35:23.239Z,26.75
2017-11-29T21:37:50.627Z,25.20
2017-11-29T21:40:18.019Z,25.45
2017-11-29T21:42:45.416Z,25.40
2017-11-29T21:45:12.821Z,31.17
2017-11-29T21:47:40.208Z,32.92
2017-11-29T21:50:07.612Z,30.50
2017-11-29T21:52:35.004Z,29.33
2017-11-29T21:55:02.410Z,28.15
2017-11-29T21:57:29.800Z,29.35
2017-11-29T21:59:57.200Z,29.23
2017-11-29T22:02:24.601Z,28.27
2017-11-29T22:04:51.997Z,28.08
2017-11-29T22:07:19.400Z,29.33
2017-11-29T22:09:46.792Z,26.80
2017-11-29T22:12:14.575Z,25.30
2017-11-29T22:14:41.980Z,27.35
2017-11-29T22:17:09.375Z,26.67
2017-11-29T22:19:36.779Z,25.10
2017-11-29T22:22:04.177Z,28.00
2017-11-29T22:24:31.571Z,27.23
2017-11-29T22:26:58.967Z,29.83
2017-11-29T22:29:26.364Z,28.60
2017-11-29T22:31:53.752Z,27.30
2017-11-29T22:34:21.204Z,27.17
2017-11-29T22:36:48.563Z,28.42
2017-11-29T22:39:15.965Z,28.33
2017-11-29T22:41:43.372Z,27.13
2017-11-29T22:44:10.761Z,26.05
2017-11-29T22:46:38.156Z,26.50
2017-11-29T22:49:05.556Z,26.10
2017-11-29T22:51:32.964Z,25.40
2017-11-29T22:54:00.365Z,26.77
2017-11-29T22:56:27.780Z,28.75
2017-11-29T22:58:55.180Z,25.73
2017-11-29T23:01:22.577Z,26.85
2017-11-29T23:03:49.973Z,28.73
2017-11-29T23:06:17.376Z,26.58
2017-11-29T23:08:44.772Z,25.08
2017-11-29T23:11:12.167Z,24.95
2017-11-29T23:13:39.563Z,24.10
2017-11-29T23:16:06.963Z,25.90
2017-11-29T23:18:34.380Z,25.90
2017-11-29T23:21:01.780Z,27.13
2017-11-29T23:23:29.179Z,27.17
2017-11-29T23:25:56.594Z,26.30
2017-11-29T23:28:23.989Z,26.05
2017-11-29T23:30:51.393Z,26.12
2017-11-29T23:33:18.791Z,26.02
2017-11-29T23:35:46.208Z,25.08
2017-11-29T23:38:13.595Z,24.52
2017-11-29T23:40:41.021Z,25.05
2017-11-29T23:43:08.412Z,25.80
2017-11-29T23:45:35.803Z,26.33
2017-11-29T23:48:03.219Z,27.35
2017-11-29T23:50:30.617Z,26.08
2017-11-29T23:52:58.028Z,26.08
2017-11-29T23:55:25.416Z,25.37
2017-11-29T23:57:52.824Z,27.08
